createdAt,value
2023-04-26T00:01:14.653Z,4.50
2023-04-26T00:04:39.011Z,4.50
2023-04-26T00:08:04.036Z,4.40
2023-04-26T00:11:27.559Z,4.30
2023-04-26T00:14:52.653Z,4.30
2023-04-26T00:18:16.985Z,4.20
2023-04-26T00:21:40.981Z,4.20
2023-04-26T00:25:04.792Z,4.10
2023-04-26T00:28:31.329Z,4.10
2023-04-26T00:31:57.284Z,4.10
2023-04-26T00:35:21.813Z,4.10
2023-04-26T00:38:45.724Z,4.00
2023-04-26T00:42:09.320Z,4.00
2023-04-26T00:45:33.072Z,4.00
2023-04-26T00:48:58.785Z,3.90
2023-04-26T00:52:22.765Z,3.80
2023-04-26T00:55:46.500Z,3.80
2023-04-26T00:59:10.228Z,3.80
2023-04-26T01:02:34.782Z,3.70
2023-04-26T01:06:01.089Z,3.70
2023-04-26T01:09:28.474Z,3.70
2023-04-26T01:12:55.239Z,3.70
2023-04-26T01:16:21.791Z,3.70
2023-04-26T01:19:55.759Z,3.70
2023-04-26T01:23:21.051Z,3.60
2023-04-26T01:26:45.806Z,3.60
2023-04-26T01:30:12.487Z,3.60
2023-04-26T01:33:36.104Z,3.60
2023-04-26T01:37:01.364Z,3.50
2023-04-26T01:40:26.623Z,3.60
2023-04-26T01:43:50.343Z,3.60
2023-04-26T01:47:15.140Z,3.60
2023-04-26T01:50:39.774Z,3.70
2023-04-26T01:54:03.474Z,3.60
2023-04-26T01:57:30.331Z,3.60
2023-04-26T02:00:53.881Z,3.60
2023-04-26T02:04:18.663Z,3.60
2023-04-26T02:07:42.279Z,3.60
2023-04-26T02:11:05.920Z,3.60
2023-04-26T02:14:30.934Z,3.60
2023-04-26T02:17:55.771Z,3.60
2023-04-26T02:21:19.464Z,3.60
2023-04-26T02:24:43.670Z,3.50
2023-04-26T02:28:08.347Z,3.50
2023-04-26T02:31:33.350Z,3.40
2023-04-26T02:34:57.010Z,3.40
2023-04-26T02:38:20.609Z,3.40
2023-04-26T02:41:44.371Z,3.30
2023-04-26T02:45:09.702Z,3.20
2023-04-26T02:48:34.874Z,3.20
2023-04-26T02:51:58.809Z,3.10
2023-04-26T02:55:23.102Z,3.10
2023-04-26T02:58:47.878Z,3.10
2023-04-26T03:02:13.082Z,3.10
2023-04-26T03:05:38.893Z,3.00
2023-04-26T03:09:02.811Z,2.90
2023-04-26T03:12:26.463Z,2.90
2023-04-26T03:15:52.420Z,2.80
2023-04-26T03:19:16.901Z,2.80
2023-04-26T03:22:42.337Z,2.80
2023-04-26T03:26:06.346Z,2.80
2023-04-26T03:29:30.867Z,2.80
2023-04-26T03:32:54.765Z,2.80
2023-04-26T03:36:19.104Z,2.80
2023-04-26T03:39:45.300Z,2.70
2023-04-26T03:43:08.952Z,2.70
2023-04-26T03:46:32.972Z,2.70
2023-04-26T03:49:57.447Z,2.70
2023-04-26T03:53:22.577Z,2.70
2023-04-26T03:56:48.189Z,2.70
2023-04-26T04:00:14.230Z,2.70
2023-04-26T04:03:41.697Z,2.60
2023-04-26T04:07:07.543Z,2.60
2023-04-26T04:10:31.644Z,2.60
2023-04-26T04:13:58.250Z,2.60
2023-04-26T04:17:22.129Z,2.60
2023-04-26T04:20:47.133Z,2.60
2023-04-26T04:24:11.489Z,2.70
2023-04-26T04:27:36.768Z,2.70
2023-04-26T04:31:02.005Z,2.80
2023-04-26T04:34:26.134Z,2.80
2023-04-26T04:37:51.498Z,2.90
2023-04-26T04:41:15.542Z,2.90
2023-04-26T04:44:40.041Z,2.90
2023-04-26T04:48:06.549Z,3.00
2023-04-26T04:51:30.871Z,3.00
2023-04-26T04:54:54.494Z,3.10
2023-04-26T04:58:18.290Z,3.10
2023-04-26T05:01:41.936Z,3.20
2023-04-26T05:05:12.164Z,3.20
2023-04-26T05:08:36.288Z,3.20
2023-04-26T05:12:03.216Z,3.50
2023-04-26T05:15:27.981Z,4.20
2023-04-26T05:18:51.672Z,5.00
2023-04-26T05:22:18.691Z,5.80
2023-04-26T05:25:43.924Z,6.40
2023-04-26T05:29:26.256Z,7.00
2023-04-26T05:33:01.215Z,7.50
2023-04-26T05:36:32.197Z,7.90
2023-04-26T05:39:57.206Z,8.40
2023-04-26T05:43:20.980Z,8.90
2023-04-26T05:46:44.825Z,9.20
2023-04-26T05:50:09.705Z,9.30
2023-04-26T05:53:34.171Z,9.40
2023-04-26T05:56:59.450Z,9.50
2023-04-26T06:00:24.983Z,9.80
2023-04-26T06:03:49.457Z,9.90
2023-04-26T06:07:16.015Z,10.40
2023-04-26T06:10:39.690Z,10.60
2023-04-26T06:14:04.964Z,10.80
2023-04-26T06:17:29.128Z,11.50
2023-04-26T06:20:56.893Z,11.70
2023-04-26T06:24:21.933Z,11.70
2023-04-26T06:27:46.101Z,12.00
2023-04-26T06:31:12.088Z,12.40
2023-04-26T06:34:40.073Z,12.00
2023-04-26T06:38:03.866Z,12.20
2023-04-26T06:41:28.016Z,12.40
2023-04-26T06:44:51.950Z,12.40
2023-04-26T06:48:20.295Z,12.60
2023-04-26T06:51:44.447Z,13.40
2023-04-26T06:55:10.197Z,13.50
2023-04-26T06:58:37.224Z,13.80
2023-04-26T07:02:03.777Z,13.70
2023-04-26T07:05:29.560Z,14.70
2023-04-26T07:08:54.452Z,15.30
2023-04-26T07:12:18.752Z,15.30
2023-04-26T07:15:43.343Z,15.60
2023-04-26T07:19:07.362Z,16.20
2023-04-26T07:22:33.472Z,16.10
2023-04-26T07:25:58.078Z,16.00
2023-04-26T07:29:22.105Z,16.20
2023-04-26T07:32:56.030Z,15.80
2023-04-26T07:36:27.240Z,16.20
2023-04-26T07:39:52.275Z,16.30
2023-04-26T07:43:16.456Z,16.70
2023-04-26T07:46:40.052Z,17.80
2023-04-26T07:50:03.629Z,17.90
2023-04-26T07:53:27.276Z,18.20
2023-04-26T07:56:52.148Z,18.00
2023-04-26T08:00:17.393Z,18.10
2023-04-26T08:03:41.138Z,18.60
2023-04-26T08:07:04.854Z,18.20
2023-04-26T08:10:28.668Z,17.10
2023-04-26T08:13:54.033Z,16.50
2023-04-26T08:17:17.912Z,16.90
2023-04-26T08:20:41.926Z,16.40
2023-04-26T08:24:05.874Z,16.60
2023-04-26T08:27:29.513Z,16.70
2023-04-26T08:30:54.538Z,15.80
2023-04-26T08:34:18.222Z,15.00
2023-04-26T08:37:41.763Z,16.70
2023-04-26T08:41:06.517Z,17.20
2023-04-26T08:44:30.736Z,15.60
2023-04-26T08:48:03.910Z,14.70
2023-04-26T08:51:29.101Z,15.70
2023-04-26T08:54:53.789Z,17.00
2023-04-26T08:58:19.256Z,18.60
2023-04-26T09:01:45.416Z,20.40
2023-04-26T09:05:11.881Z,21.10
2023-04-26T09:08:41.663Z,20.50
2023-04-26T09:12:05.835Z,18.60
2023-04-26T09:15:29.811Z,16.10
2023-04-26T09:18:57.266Z,15.20
2023-04-26T09:22:31.210Z,16.30
2023-04-26T09:25:54.907Z,15.60
2023-04-26T09:29:20.479Z,14.50
2023-04-26T09:32:52.593Z,13.80
2023-04-26T09:36:16.527Z,13.00
2023-04-26T09:39:42.936Z,12.40
2023-04-26T09:43:08.041Z,11.90
2023-04-26T09:46:31.604Z,11.50
2023-04-26T09:49:56.655Z,11.60
2023-04-26T09:53:28.498Z,11.40
2023-04-26T09:57:02.691Z,11.30
2023-04-26T10:00:27.235Z,11.10
2023-04-26T10:03:51.413Z,10.70
2023-04-26T10:07:16.374Z,10.40
2023-04-26T10:10:41.168Z,10.10
2023-04-26T10:14:06.878Z,10.00
2023-04-26T10:17:32.292Z,10.20
2023-04-26T10:21:00.239Z,10.00
2023-04-26T10:24:24.933Z,10.10
2023-04-26T10:27:49.973Z,9.90
2023-04-26T10:31:15.025Z,10.00
2023-04-26T10:34:39.001Z,10.10
2023-04-26T10:38:12.161Z,10.20
2023-04-26T10:41:38.381Z,10.50
2023-04-26T10:45:28.607Z,10.90
2023-04-26T10:48:53.861Z,11.20
2023-04-26T10:52:20.303Z,11.50
2023-04-26T10:55:44.285Z,11.50
2023-04-26T11:03:12.655Z,11.90
2023-04-26T11:06:51.380Z,12.00
2023-04-26T11:10:24.141Z,12.90
2023-04-26T11:13:48.611Z,13.00
2023-04-26T11:17:13.133Z,13.40
2023-04-26T11:20:36.744Z,13.40
2023-04-26T11:24:01.946Z,12.50
2023-04-26T11:27:28.954Z,12.40
2023-04-26T11:30:52.582Z,12.00
2023-04-26T11:34:16.591Z,11.90
2023-04-26T11:37:40.142Z,11.80
2023-04-26T11:41:05.439Z,12.00
2023-04-26T11:44:29.071Z,11.90
2023-04-26T11:47:52.941Z,11.80
2023-04-26T11:51:16.775Z,11.70
2023-04-26T11:54:40.426Z,11.60
2023-04-26T11:58:11.396Z,11.80
2023-04-26T12:01:34.950Z,11.90
2023-04-26T12:05:01.827Z,12.00
2023-04-26T12:08:26.628Z,11.70
2023-04-26T12:11:55.074Z,11.80
2023-04-26T12:15:23.403Z,12.00
2023-04-26T12:18:52.632Z,11.70
2023-04-26T12:22:22.866Z,11.80
2023-04-26T12:25:54.848Z,12.00
2023-04-26T12:29:18.587Z,12.30
2023-04-26T12:32:43.589Z,12.60
2023-04-26T12:36:08.758Z,12.90
2023-04-26T12:39:32.319Z,13.20
2023-04-26T12:42:57.131Z,13.30
2023-04-26T12:46:20.810Z,13.00
2023-04-26T12:49:45.734Z,12.40
2023-04-26T12:53:10.878Z,12.30
2023-04-26T12:56:37.880Z,12.10
2023-04-26T13:00:01.508Z,11.80
2023-04-26T13:03:25.331Z,11.50
2023-04-26T13:06:50.542Z,11.40
2023-04-26T13:10:14.365Z,11.30
2023-04-26T13:13:43.875Z,11.20
2023-04-26T13:17:09.441Z,11.10
2023-04-26T13:20:33.078Z,10.90
2023-04-26T13:23:58.149Z,11.30
2023-04-26T13:27:21.747Z,11.30
2023-04-26T13:30:45.345Z,11.20
2023-04-26T13:34:09.716Z,11.00
2023-04-26T13:37:33.300Z,11.20
2023-04-26T13:40:58.183Z,11.30
2023-04-26T13:44:21.967Z,11.30
2023-04-26T13:47:45.655Z,11.40
2023-04-26T13:51:09.344Z,11.50
2023-04-26T13:54:32.941Z,11.50
2023-04-26T13:57:58.186Z,11.70
2023-04-26T14:01:22.901Z,11.60
2023-04-26T14:04:46.773Z,11.30
2023-04-26T14:08:12.528Z,11.30
2023-04-26T14:11:36.591Z,11.30
2023-04-26T14:15:02.731Z,10.90
2023-04-26T14:18:26.660Z,10.90
2023-04-26T14:21:50.291Z,10.80
2023-04-26T14:25:14.048Z,10.90
2023-04-26T14:28:37.718Z,10.90
2023-04-26T14:32:03.171Z,10.70
2023-04-26T14:35:27.050Z,11.10
2023-04-26T14:38:51.255Z,11.20
2023-04-26T14:42:15.080Z,11.30
2023-04-26T14:45:44.430Z,11.70
2023-04-26T14:49:09.692Z,11.70
2023-04-26T14:52:35.921Z,11.90
2023-04-26T14:56:00.187Z,12.00
2023-04-26T14:59:23.881Z,11.90
2023-04-26T15:02:48.042Z,11.80
2023-04-26T15:06:13.874Z,11.70
2023-04-26T15:09:37.621Z,11.50
2023-04-26T15:13:01.232Z,11.50
2023-04-26T15:16:24.915Z,11.40
2023-04-26T15:19:48.480Z,11.30
2023-04-26T15:23:13.497Z,11.40
2023-04-26T15:26:37.052Z,11.50
2023-04-26T15:30:01.021Z,11.60
2023-04-26T15:33:24.673Z,11.60
2023-04-26T15:36:48.220Z,11.70
2023-04-26T15:40:13.866Z,11.70
2023-04-26T15:43:37.629Z,11.80
2023-04-26T15:47:02.433Z,11.80
2023-04-26T15:50:26.107Z,11.80
2023-04-26T15:53:51.581Z,11.40
2023-04-26T15:57:16.496Z,11.30
2023-04-26T16:00:41.950Z,11.40
2023-04-26T16:04:05.860Z,11.20
2023-04-26T16:07:29.669Z,11.30
2023-04-26T16:10:53.209Z,11.50
2023-04-26T16:14:18.111Z,11.70
2023-04-26T16:17:41.764Z,11.70
2023-04-26T16:21:06.047Z,11.70
2023-04-26T16:24:29.630Z,11.70
2023-04-26T16:27:53.160Z,11.60
2023-04-26T16:31:18.700Z,11.60
2023-04-26T16:34:42.564Z,11.50
2023-04-26T16:38:06.121Z,11.50
2023-04-26T16:41:29.705Z,11.40
2023-04-26T16:44:55.360Z,11.50
2023-04-26T16:48:20.566Z,11.30
2023-04-26T16:51:49.413Z,11.20
2023-04-26T16:55:13.228Z,11.20
2023-04-26T16:58:36.866Z,11.20
2023-04-26T17:02:00.638Z,11.10
2023-04-26T17:05:25.617Z,11.10
2023-04-26T17:08:49.563Z,11.00
2023-04-26T17:12:13.629Z,10.80
2023-04-26T17:15:37.244Z,10.60
2023-04-26T17:19:00.834Z,10.50
2023-04-26T17:22:25.951Z,10.30
2023-04-26T17:25:49.556Z,10.20
2023-04-26T17:29:13.112Z,10.20
2023-04-26T17:32:36.934Z,10.10
2023-04-26T17:36:01.681Z,10.10
2023-04-26T17:39:26.662Z,10.10
2023-04-26T17:42:50.214Z,10.10
2023-04-26T17:46:14.077Z,10.00
2023-04-26T17:49:37.667Z,9.90
2023-04-26T17:53:02.110Z,9.90
2023-04-26T17:56:27.815Z,9.90
2023-04-26T17:59:52.460Z,9.90
2023-04-26T18:03:17.217Z,9.90
2023-04-26T18:06:41.086Z,9.90
2023-04-26T18:10:05.504Z,9.90
2023-04-26T18:13:30.752Z,9.80
2023-04-26T18:16:54.449Z,9.70
2023-04-26T18:20:18.148Z,9.70
2023-04-26T18:23:42.141Z,9.60
2023-04-26T18:27:06.150Z,9.70
2023-04-26T18:30:31.135Z,9.60
2023-04-26T18:33:54.762Z,9.50
2023-04-26T18:37:18.428Z,9.40
2023-04-26T18:40:44.401Z,9.40
2023-04-26T18:44:11.766Z,9.30
2023-04-26T18:47:36.691Z,9.40
2023-04-26T18:51:00.366Z,9.40
2023-04-26T18:54:24.112Z,9.40
2023-04-26T18:57:47.734Z,9.40
2023-04-26T19:01:11.279Z,9.40
2023-04-26T19:04:36.326Z,9.40
2023-04-26T19:08:00.150Z,9.40
2023-04-26T19:11:23.684Z,9.10
2023-04-26T19:14:47.224Z,9.00
2023-04-26T19:18:11.166Z,9.00
2023-04-26T19:21:36.229Z,9.00
2023-04-26T19:25:00.986Z,8.90
2023-04-26T19:28:25.304Z,8.90
2023-04-26T19:31:48.974Z,8.80
2023-04-26T19:35:12.970Z,8.80
2023-04-26T19:38:38.318Z,8.60
2023-04-26T19:42:03.209Z,8.60
2023-04-26T19:45:26.973Z,8.60
2023-04-26T19:48:51.578Z,8.70
2023-04-26T19:52:15.152Z,8.70
2023-04-26T19:55:41.418Z,8.60
2023-04-26T19:59:05.268Z,8.60
2023-04-26T20:02:30.332Z,8.50
2023-04-26T20:05:54.256Z,8.50
2023-04-26T20:09:18.100Z,8.50
2023-04-26T20:12:43.066Z,8.50
2023-04-26T20:16:07.181Z,8.40
2023-04-26T20:19:31.050Z,8.40
2023-04-26T20:22:54.649Z,8.40
2023-04-26T20:26:18.485Z,8.30
2023-04-26T20:29:43.473Z,8.30
2023-04-26T20:33:07.114Z,8.20
2023-04-26T20:36:30.768Z,8.10
2023-04-26T20:39:54.417Z,8.10
2023-04-26T20:43:18.300Z,8.20
2023-04-26T20:46:43.223Z,8.10
2023-04-26T20:50:08.069Z,8.10
2023-04-26T20:53:32.136Z,8.10
2023-04-26T20:56:55.825Z,8.20
2023-04-26T21:00:20.210Z,8.10
2023-04-26T21:03:45.251Z,8.10
2023-04-26T21:07:09.147Z,8.10
2023-04-26T21:10:32.827Z,8.00
2023-04-26T21:13:57.519Z,8.00
2023-04-26T21:17:21.143Z,7.90
2023-04-26T21:20:46.027Z,7.90
2023-04-26T21:24:09.740Z,7.90
2023-04-26T21:27:33.734Z,7.90
2023-04-26T21:31:04.446Z,7.90
2023-04-26T21:34:28.112Z,8.00
2023-04-26T21:37:53.405Z,8.00
2023-04-26T21:41:16.943Z,8.00
2023-04-26T21:44:40.614Z,7.90
2023-04-26T21:48:04.740Z,7.90
2023-04-26T21:51:28.773Z,7.90
2023-04-26T21:54:53.648Z,7.80
2023-04-26T21:58:17.273Z,7.80
2023-04-26T22:01:41.217Z,7.70
2023-04-26T22:05:05.034Z,7.60
2023-04-26T22:08:28.643Z,7.60
2023-04-26T22:11:53.535Z,7.60
2023-04-26T22:15:17.081Z,7.50
2023-04-26T22:18:40.685Z,7.40
2023-04-26T22:22:04.229Z,7.30
2023-04-26T22:25:27.789Z,7.20
2023-04-26T22:28:52.876Z,7.20
2023-04-26T22:32:16.545Z,7.20
2023-04-26T22:35:40.153Z,7.20
2023-04-26T22:39:04.095Z,7.20
2023-04-26T22:42:27.766Z,7.10
2023-04-26T22:45:52.813Z,7.10
2023-04-26T22:49:16.529Z,7.10
2023-04-26T22:52:41.101Z,7.00
2023-04-26T22:56:06.677Z,7.00
2023-04-26T22:59:34.042Z,7.00
2023-04-26T23:02:58.969Z,6.90
2023-04-26T23:06:23.398Z,6.90
2023-04-26T23:09:47.415Z,6.90
2023-04-26T23:13:11.210Z,6.80
2023-04-26T23:16:35.255Z,6.80
2023-04-26T23:20:01.064Z,6.70
2023-04-26T23:23:24.723Z,6.70
2023-04-26T23:26:49.154Z,6.70
2023-04-26T23:30:14.544Z,6.70
2023-04-26T23:33:38.133Z,6.60
2023-04-26T23:37:06.995Z,6.60
2023-04-26T23:40:31.836Z,6.50
2023-04-26T23:43:56.232Z,6.60
2023-04-26T23:47:19.953Z,6.60
2023-04-26T23:50:43.869Z,6.60
2023-04-26T23:54:09.598Z,6.60
2023-04-26T23:57:33.186Z,6.60
